createdAt,value
2019-02-20T00:04:26.023Z,101374.95
2019-02-20T00:09:31.787Z,101376.76
2019-02-20T00:14:35.853Z,101377.34
2019-02-20T00:19:39.961Z,101376.76
2019-02-20T00:35:39.929Z,101388.71
2019-02-20T00:40:44.075Z,101377.94
2019-02-20T00:46:07.084Z,101390.75
2019-02-20T00:51:11.170Z,101393.99
2019-02-20T00:56:16.941Z,101390.59
2019-02-20T01:01:21.040Z,101390.96
2019-02-20T01:06:25.127Z,101400.86
2019-02-20T01:11:30.899Z,101407.50
2019-02-20T01:16:53.959Z,101404.13
2019-02-20T01:22:18.679Z,101404.98
2019-02-20T01:27:22.862Z,101403.28
2019-02-20T01:32:46.448Z,101403.28
2019-02-20T01:37:52.225Z,101396.52
2019-02-20T01:42:56.310Z,101396.74
2019-02-20T01:48:02.080Z,101398.56
2019-02-20T01:53:25.096Z,101405.95
2019-02-20T01:58:49.980Z,101383.44
2019-02-20T02:04:13.148Z,101388.65
2019-02-20T02:14:32.697Z,101387.89
2019-02-20T02:19:38.476Z,101394.17
2019-02-20T02:24:44.291Z,101385.60
2019-02-20T02:30:09.044Z,101391.72
2019-02-20T02:35:32.131Z,101388.77
2019-02-20T02:40:47.463Z,101394.72
2019-02-20T02:45:51.965Z,101389.98
2019-02-20T02:50:56.050Z,101401.84
2019-02-20T02:56:00.161Z,101401.12
2019-02-20T03:01:04.207Z,101399.75
2019-02-20T03:06:09.976Z,101400.25
2019-02-20T03:11:33.046Z,101402.80
2019-02-20T03:16:37.176Z,101399.78
2019-02-20T03:21:41.326Z,101398.34
2019-02-20T03:26:47.138Z,101401.37
2019-02-20T03:32:11.900Z,101404.76
2019-02-20T03:37:16.007Z,101406.09
2019-02-20T03:42:20.111Z,101408.12
2019-02-20T03:47:44.857Z,101420.80
2019-02-20T03:52:48.891Z,101419.73
2019-02-20T03:57:54.693Z,101428.53
2019-02-20T04:02:58.743Z,101429.61
2019-02-20T04:08:02.824Z,101435.28
2019-02-20T04:18:23.119Z,101433.67
2019-02-20T04:28:47.627Z,101445.16
2019-02-20T04:39:07.309Z,101441.64
2019-02-20T04:44:11.409Z,101443.09
2019-02-20T04:49:17.194Z,101450.01
2019-02-20T04:59:37.147Z,101451.92
2019-02-20T05:04:42.947Z,101453.14
2019-02-20T05:09:49.354Z,101457.13
2019-02-20T05:14:53.934Z,101465.00
2019-02-20T05:19:58.118Z,101445.16
2019-02-20T05:25:04.541Z,101449.52
2019-02-20T05:30:13.854Z,101459.20
2019-02-20T05:35:17.886Z,101460.89
2019-02-20T05:40:24.068Z,101465.37
2019-02-20T05:45:28.150Z,101467.91
2019-02-20T05:50:32.180Z,101473.12
2019-02-20T05:55:36.221Z,101482.53
2019-02-20T06:00:41.067Z,101496.19
2019-02-20T06:05:45.165Z,101503.17
2019-02-20T06:10:49.242Z,101506.56
2019-02-20T06:16:12.355Z,101505.81
2019-02-20T06:21:16.569Z,101509.09
2019-02-20T06:31:37.217Z,101518.03
2019-02-20T06:36:41.288Z,101517.42
2019-02-20T06:41:45.302Z,101523.34
2019-02-20T06:46:49.571Z,101529.17
2019-02-20T06:51:54.016Z,101525.52
2019-02-20T06:57:03.477Z,101524.87
2019-02-20T07:07:58.606Z,101536.95
2019-02-20T07:13:24.770Z,101530.94
2019-02-20T07:19:00.159Z,101536.04
2019-02-20T07:24:42.319Z,101561.30
2019-02-20T07:35:40.480Z,101579.66
2019-02-20T07:40:44.578Z,101585.09
2019-02-20T07:45:49.273Z,101579.63
2019-02-20T07:51:03.859Z,101594.03
2019-02-20T07:56:24.055Z,101604.92
2019-02-20T08:01:28.145Z,101601.67
2019-02-20T08:06:32.385Z,101615.55
2019-02-20T08:11:36.459Z,101624.27
2019-02-20T08:16:40.474Z,101618.72
2019-02-20T08:21:44.871Z,101628.88
2019-02-20T08:26:48.971Z,101617.35
2019-02-20T08:31:53.948Z,101626.37
2019-02-20T08:37:04.362Z,101635.72
2019-02-20T08:42:08.512Z,101629.61
2019-02-20T08:47:12.614Z,101641.34
2019-02-20T08:52:17.149Z,101646.71
2019-02-20T08:57:21.232Z,101666.05
2019-02-20T09:02:25.361Z,101664.87
2019-02-20T09:07:29.524Z,101666.53
2019-02-20T09:12:33.675Z,101691.92
2019-02-20T09:17:37.661Z,101693.47
2019-02-20T09:22:41.725Z,101699.29
2019-02-20T09:33:22.106Z,101709.16
2019-02-20T09:38:26.160Z,101713.02
2019-02-20T09:43:30.575Z,101704.98
2019-02-20T09:48:34.944Z,101710.34
2019-02-20T09:53:39.367Z,101710.34
2019-02-20T09:58:43.407Z,101714.43
2019-02-20T10:03:47.551Z,101719.59
2019-02-20T10:08:51.614Z,101727.49
2019-02-20T10:13:55.698Z,101729.87
2019-02-20T10:19:00.069Z,101732.48
2019-02-20T10:24:04.462Z,101725.05
2019-02-20T10:29:08.564Z,101730.58
2019-02-20T10:34:12.645Z,101739.95
2019-02-20T10:39:16.890Z,101749.00
2019-02-20T10:44:21.000Z,101743.67
2019-02-20T10:49:25.387Z,101742.30
2019-02-20T10:54:29.771Z,101748.23
2019-02-20T10:59:33.865Z,101744.47
2019-02-20T11:04:38.257Z,101744.77
2019-02-20T11:09:42.326Z,101741.50
2019-02-20T11:14:46.524Z,101738.89
2019-02-20T11:19:50.604Z,101740.22
2019-02-20T11:24:55.008Z,101738.23
2019-02-20T11:29:59.822Z,101726.59
2019-02-20T11:35:04.145Z,101737.23
2019-02-20T11:40:08.923Z,101734.30
2019-02-20T11:45:13.122Z,101722.06
2019-02-20T11:50:20.076Z,101718.14
2019-02-20T11:55:24.519Z,101725.33
2019-02-20T12:00:29.003Z,101718.72
2019-02-20T12:05:33.243Z,101714.38
2019-02-20T12:10:37.598Z,101712.45
2019-02-20T12:15:42.021Z,101705.19
2019-02-20T12:20:46.173Z,101719.98
2019-02-20T12:25:50.294Z,101715.31
2019-02-20T12:30:56.410Z,101721.83
2019-02-20T12:36:00.711Z,101726.77
2019-02-20T12:41:05.332Z,101729.39
2019-02-20T12:46:09.459Z,101722.59
2019-02-20T12:51:13.577Z,101728.15
2019-02-20T12:56:17.749Z,101731.84
2019-02-20T13:01:21.875Z,101726.68
2019-02-20T13:06:26.039Z,101733.80
2019-02-20T13:11:30.229Z,101724.80
2019-02-20T13:16:34.277Z,101726.88
2019-02-20T13:21:38.412Z,101735.42
2019-02-20T13:26:42.489Z,101726.56
2019-02-20T13:31:46.550Z,101729.56
2019-02-20T13:36:50.674Z,101732.91
2019-02-20T13:41:54.818Z,101729.93
2019-02-20T13:46:58.864Z,101734.20
2019-02-20T13:52:03.917Z,101733.00
2019-02-20T13:57:07.968Z,101732.14
2019-02-20T14:02:12.314Z,101722.95
2019-02-20T14:07:16.462Z,101732.97
2019-02-20T14:12:20.585Z,101734.27
2019-02-20T14:17:26.902Z,101741.16
2019-02-20T14:22:30.468Z,101733.25
2019-02-20T14:27:34.900Z,101728.34
2019-02-20T14:32:38.994Z,101728.68
2019-02-20T14:37:43.087Z,101728.36
2019-02-20T14:42:47.273Z,101733.99
2019-02-20T14:47:51.547Z,101729.38
2019-02-20T14:52:55.796Z,101737.14
2019-02-20T14:57:59.835Z,101737.30
2019-02-20T15:03:05.635Z,101742.20
2019-02-20T15:08:09.890Z,101745.14
2019-02-20T15:13:14.022Z,101756.70
2019-02-20T15:18:18.617Z,101754.73
2019-02-20T15:23:22.701Z,101755.63
2019-02-20T15:28:27.446Z,101751.80
2019-02-20T15:33:31.595Z,101771.69
2019-02-20T15:38:35.646Z,101772.67
2019-02-20T15:49:14.627Z,101772.33
2019-02-20T16:00:20.990Z,101777.31
2019-02-20T16:05:46.078Z,101789.22
2019-02-20T16:10:50.136Z,101788.23
2019-02-20T16:16:03.232Z,101795.57
2019-02-20T16:21:10.736Z,101798.45
2019-02-20T16:26:17.295Z,101796.45
2019-02-20T16:31:24.090Z,101800.84
2019-02-20T16:36:32.480Z,101801.69
2019-02-20T16:41:40.087Z,101813.70
2019-02-20T16:46:48.621Z,101813.70
2019-02-20T16:51:58.486Z,101818.38
2019-02-20T16:57:04.582Z,101831.20
2019-02-20T17:02:11.511Z,101824.96
2019-02-20T17:07:16.793Z,101839.57
2019-02-20T17:12:21.368Z,101838.04
2019-02-20T17:17:25.985Z,101847.29
2019-02-20T17:22:32.052Z,101855.17
2019-02-20T17:27:36.136Z,101858.34
2019-02-20T17:32:40.481Z,101861.75
2019-02-20T17:37:44.995Z,101869.55
2019-02-20T17:42:51.869Z,101869.55
2019-02-20T17:47:56.073Z,101884.59
2019-02-20T17:53:00.345Z,101889.80
2019-02-20T17:58:04.429Z,101889.55
2019-02-20T18:03:08.574Z,101888.36
2019-02-20T18:08:12.645Z,101891.39
2019-02-20T18:13:16.965Z,101887.39
2019-02-20T18:18:21.438Z,101892.02
2019-02-20T18:23:25.507Z,101883.28
2019-02-20T18:28:30.019Z,101897.20
2019-02-20T18:33:35.573Z,101900.12
2019-02-20T18:38:40.067Z,101906.28
2019-02-20T18:43:44.359Z,101908.72
2019-02-20T18:48:48.449Z,101912.35
2019-02-20T18:53:52.739Z,101906.17
2019-02-20T18:58:56.872Z,101912.72
2019-02-20T19:04:00.959Z,101911.50
2019-02-20T19:09:20.726Z,101921.32
2019-02-20T19:14:50.623Z,101924.83
2019-02-20T19:20:41.645Z,101922.52
2019-02-20T19:26:36.218Z,101922.03
2019-02-20T19:32:35.095Z,101923.86
2019-02-20T19:38:22.345Z,101925.44
2019-02-20T19:44:01.311Z,101920.47
2019-02-20T19:49:30.872Z,101923.95
2019-02-20T19:54:43.038Z,101927.84
2019-02-20T20:00:03.753Z,101925.67
2019-02-20T20:06:12.735Z,101924.70
2019-02-20T20:12:05.652Z,101934.86
2019-02-20T20:18:20.896Z,101933.52
2019-02-20T20:24:06.625Z,101939.41
2019-02-20T20:30:00.406Z,101940.86
2019-02-20T20:35:46.022Z,101939.30
2019-02-20T20:41:30.303Z,101941.11
2019-02-20T20:47:21.044Z,101944.88
2019-02-20T20:53:45.387Z,101949.95
2019-02-20T20:59:21.427Z,101938.23
2019-02-20T21:05:22.028Z,101933.12
2019-02-20T21:11:15.386Z,101942.78
2019-02-20T21:17:08.121Z,101932.69
2019-02-20T21:22:53.250Z,101929.65
2019-02-20T21:28:29.808Z,101934.08
2019-02-20T21:34:26.481Z,101935.66
2019-02-20T21:40:11.038Z,101929.27
2019-02-20T21:45:57.690Z,101926.88
2019-02-20T21:51:52.089Z,101929.97
2019-02-20T21:57:20.795Z,101927.07
2019-02-20T22:03:02.033Z,101933.81
2019-02-20T22:08:34.671Z,101931.15
2019-02-20T22:14:28.519Z,101931.50
2019-02-20T22:20:12.785Z,101932.05
2019-02-20T22:25:48.318Z,101935.60
2019-02-20T22:31:38.164Z,101936.73
2019-02-20T22:37:23.531Z,101934.94
2019-02-20T22:43:13.552Z,101946.86
2019-02-20T22:49:02.195Z,101942.23
2019-02-20T22:54:38.623Z,101958.23
2019-02-20T23:00:01.920Z,101955.85
2019-02-20T23:05:38.895Z,101962.24
2019-02-20T23:11:21.030Z,101964.33
2019-02-20T23:16:25.179Z,101964.45
2019-02-20T23:21:29.269Z,101961.30
2019-02-20T23:26:33.365Z,101963.88
2019-02-20T23:31:37.441Z,101964.15
2019-02-20T23:36:41.527Z,101963.66
2019-02-20T23:41:45.601Z,101971.41
2019-02-20T23:46:49.687Z,101969.92
2019-02-20T23:51:54.163Z,101975.52
2019-02-20T23:56:58.225Z,101973.92
